createdAt,value
2022-09-25T00:02:06.137Z,97833.69
2022-09-25T00:04:35.274Z,97842.31
2022-09-25T00:07:04.336Z,97830.06
2022-09-25T00:09:33.548Z,97852.88
2022-09-25T00:12:02.697Z,97853.66
2022-09-25T00:14:42.961Z,97853.41
2022-09-25T00:17:14.321Z,97856.88
2022-09-25T00:19:59.082Z,97844.81
2022-09-25T00:22:29.772Z,97855.34
2022-09-25T00:25:04.022Z,97859.47
2022-09-25T00:27:33.094Z,97852.72
2022-09-25T00:30:03.190Z,97833.91
2022-09-25T00:32:35.157Z,97844.81
2022-09-25T00:35:04.292Z,97866.59
2022-09-25T00:37:35.499Z,97871.69
2022-09-25T00:40:06.221Z,97848.94
2022-09-25T00:42:36.040Z,97873.41
2022-09-25T00:45:08.226Z,97867.47
2022-09-25T00:47:51.338Z,97871.78
2022-09-25T00:50:28.517Z,97873.00
2022-09-25T00:53:03.533Z,97872.19
2022-09-25T00:55:34.864Z,97881.66
2022-09-25T01:00:40.531Z,97878.97
2022-09-25T01:03:11.623Z,97870.53
2022-09-25T01:05:47.485Z,97876.41
2022-09-25T01:08:19.990Z,97884.38
2022-09-25T01:10:49.127Z,97878.53
2022-09-25T01:13:20.847Z,97871.94
2022-09-25T01:15:57.185Z,97886.88
2022-09-25T01:18:41.498Z,97891.31
2022-09-25T01:21:38.593Z,97890.47
2022-09-25T01:24:35.845Z,97895.84
2022-09-25T01:27:28.738Z,97889.00
2022-09-25T01:30:07.479Z,97894.34
2022-09-25T01:32:46.054Z,97897.81
2022-09-25T01:35:21.705Z,97898.59
2022-09-25T01:37:59.527Z,97902.84
2022-09-25T01:40:34.097Z,97902.19
2022-09-25T01:43:09.673Z,97897.97
2022-09-25T01:45:46.343Z,97904.16
2022-09-25T01:48:20.501Z,97910.28
2022-09-25T01:50:55.155Z,97912.13
2022-09-25T01:53:28.346Z,97911.41
2022-09-25T01:56:08.374Z,97919.06
2022-09-25T01:58:43.266Z,97914.03
2022-09-25T02:01:27.565Z,97917.44
2022-09-25T02:04:00.533Z,97934.63
2022-09-25T02:06:30.346Z,97921.13
2022-09-25T02:09:05.346Z,97927.13
2022-09-25T02:11:44.397Z,97937.44
2022-09-25T02:17:00.945Z,97930.53
2022-09-25T02:19:43.276Z,97949.44
2022-09-25T02:22:20.121Z,97936.56
2022-09-25T02:25:01.228Z,97934.91
2022-09-25T02:27:30.956Z,97936.75
2022-09-25T02:30:00.369Z,97938.56
2022-09-25T02:32:41.437Z,97944.50
2022-09-25T02:35:11.383Z,97936.06
2022-09-25T02:37:40.477Z,97936.84
2022-09-25T02:40:11.925Z,97946.19
2022-09-25T02:42:51.130Z,97945.31
2022-09-25T02:48:18.082Z,97949.69
2022-09-25T02:51:02.103Z,97957.53
2022-09-25T02:53:38.704Z,97948.44
2022-09-25T02:56:14.846Z,97967.16
2022-09-25T02:58:48.536Z,97962.09
2022-09-25T03:01:25.157Z,97966.69
2022-09-25T03:03:59.506Z,97960.78
2022-09-25T03:06:29.779Z,97967.75
2022-09-25T03:09:01.134Z,97971.41
2022-09-25T03:11:34.376Z,97968.81
2022-09-25T03:14:05.411Z,97977.41
2022-09-25T03:16:40.167Z,97980.94
2022-09-25T03:19:11.465Z,97974.28
2022-09-25T03:24:20.538Z,97937.88
2022-09-25T03:26:49.857Z,97991.41
2022-09-25T03:29:19.422Z,97987.22
2022-09-25T03:31:48.658Z,97996.53
2022-09-25T03:34:21.224Z,97990.47
2022-09-25T03:36:55.450Z,97994.94
2022-09-25T03:39:24.686Z,97989.78
2022-09-25T03:41:53.820Z,97998.38
2022-09-25T03:44:36.274Z,97992.22
2022-09-25T03:47:05.449Z,98003.22
2022-09-25T03:52:16.287Z,98003.63
2022-09-25T03:54:45.510Z,98002.25
2022-09-25T03:57:14.926Z,98004.84
2022-09-25T03:59:44.292Z,98008.34
2022-09-25T04:02:13.498Z,98015.19
2022-09-25T04:04:45.386Z,98008.34
2022-09-25T04:07:16.205Z,98017.91
2022-09-25T04:09:45.256Z,98007.03
2022-09-25T04:12:20.139Z,98026.88
2022-09-25T04:14:49.278Z,98031.09
2022-09-25T04:17:18.464Z,98026.66
2022-09-25T04:19:54.530Z,98029.50
2022-09-25T04:22:23.682Z,98033.94
2022-09-25T04:24:54.409Z,98036.53
2022-09-25T04:27:26.134Z,98044.94
2022-09-25T04:29:55.236Z,98044.94
2022-09-25T04:32:42.200Z,98049.16
2022-09-25T04:35:13.415Z,98048.25
2022-09-25T04:37:43.773Z,98052.47
2022-09-25T04:40:18.433Z,98057.41
2022-09-25T04:42:47.522Z,98055.59
2022-09-25T04:45:22.033Z,98061.41
2022-09-25T04:47:51.335Z,98062.19
2022-09-25T04:53:04.963Z,98074.72
2022-09-25T04:55:34.087Z,98078.09
2022-09-25T04:58:03.826Z,98075.59
2022-09-25T05:00:34.296Z,98085.31
2022-09-25T05:03:05.132Z,98077.78
2022-09-25T05:05:36.729Z,98056.75
2022-09-25T05:08:11.220Z,98066.00
2022-09-25T05:10:41.717Z,98084.38
2022-09-25T05:13:18.263Z,98082.44
2022-09-25T05:15:52.367Z,98092.47
2022-09-25T05:18:23.716Z,98084.59
2022-09-25T05:20:55.567Z,98093.09
2022-09-25T05:23:24.419Z,98087.63
2022-09-25T05:25:54.831Z,98095.59
2022-09-25T05:28:33.170Z,98090.53
2022-09-25T05:31:03.675Z,98100.78
2022-09-25T05:33:33.850Z,98108.69
2022-09-25T05:36:06.457Z,98098.28
2022-09-25T05:38:37.660Z,98098.88
2022-09-25T05:41:08.509Z,98097.09
2022-09-25T05:46:17.937Z,98108.22
2022-09-25T05:48:47.109Z,98112.31
2022-09-25T05:51:18.676Z,98120.00
2022-09-25T05:53:47.794Z,98120.78
2022-09-25T05:56:16.881Z,98124.00
2022-09-25T05:58:52.735Z,98128.41
2022-09-25T06:01:22.131Z,98130.19
2022-09-25T06:03:51.334Z,98131.41
2022-09-25T06:06:27.192Z,98124.97
2022-09-25T06:09:07.935Z,98137.53
2022-09-25T06:11:37.082Z,98134.81
2022-09-25T06:14:06.406Z,98135.69
2022-09-25T06:16:35.693Z,98129.63
2022-09-25T06:19:06.668Z,98138.81
2022-09-25T06:21:42.759Z,98134.09
2022-09-25T06:24:12.487Z,98142.72
2022-09-25T06:26:41.584Z,98134.53
2022-09-25T06:29:10.873Z,98122.44
2022-09-25T06:31:40.011Z,98141.94
2022-09-25T06:34:11.978Z,98136.00
2022-09-25T06:36:43.309Z,98149.09
2022-09-25T06:39:12.570Z,98150.78
2022-09-25T06:41:41.882Z,98158.19
2022-09-25T06:44:13.988Z,98169.03
2022-09-25T06:46:44.658Z,98159.28
2022-09-25T06:49:15.616Z,98159.69
2022-09-25T06:51:47.998Z,98167.25
2022-09-25T06:54:17.301Z,98148.09
2022-09-25T06:56:46.447Z,98180.63
2022-09-25T06:59:15.655Z,98180.41
2022-09-25T07:01:45.022Z,98177.25
2022-09-25T07:04:13.131Z,98173.22
2022-09-25T07:06:42.131Z,98180.41
2022-09-25T07:09:13.447Z,98180.09
2022-09-25T07:11:48.266Z,98151.72
2022-09-25T07:14:17.549Z,98186.13
2022-09-25T07:16:46.539Z,98182.81
2022-09-25T07:19:15.790Z,98195.63
2022-09-25T07:21:44.877Z,98191.75
2022-09-25T07:24:15.983Z,98198.00
2022-09-25T07:26:45.128Z,98205.09
2022-09-25T07:29:14.460Z,98205.94
2022-09-25T07:31:45.117Z,98212.91
2022-09-25T07:34:14.955Z,98211.72
2022-09-25T07:36:45.340Z,98198.97
2022-09-25T07:39:18.660Z,98232.53
2022-09-25T07:41:48.144Z,98228.44
2022-09-25T07:44:28.429Z,98231.28
2022-09-25T07:47:00.971Z,98230.38
2022-09-25T07:49:30.341Z,98234.47
2022-09-25T07:52:00.658Z,98230.31
2022-09-25T07:54:31.958Z,98231.84
2022-09-25T07:57:01.280Z,98225.78
2022-09-25T07:59:30.308Z,98244.88
2022-09-25T08:02:05.274Z,98245.50
2022-09-25T08:04:34.533Z,98252.25
2022-09-25T08:07:04.238Z,98252.03
2022-09-25T08:09:35.366Z,98254.09
2022-09-25T08:12:04.754Z,98257.72
2022-09-25T08:14:33.767Z,98267.47
2022-09-25T08:17:03.042Z,98249.44
2022-09-25T08:19:32.769Z,98263.84
2022-09-25T08:22:01.870Z,98252.66
2022-09-25T08:24:31.090Z,98262.22
2022-09-25T08:27:02.155Z,98266.66
2022-09-25T08:32:11.730Z,98285.03
2022-09-25T08:34:42.168Z,98281.16
2022-09-25T08:37:12.147Z,98296.41
2022-09-25T08:39:41.587Z,98299.69
2022-09-25T08:42:34.631Z,98309.03
2022-09-25T08:45:41.811Z,98306.97
2022-09-25T08:48:31.211Z,98315.41
2022-09-25T08:51:03.095Z,98319.63
2022-09-25T08:53:32.431Z,98319.69
2022-09-25T08:56:15.318Z,98321.44
2022-09-25T08:58:50.276Z,98331.56
2022-09-25T09:01:23.191Z,98323.19
2022-09-25T09:03:57.402Z,98333.03
2022-09-25T09:06:29.517Z,98328.66
2022-09-25T09:09:15.101Z,98331.41
2022-09-25T09:11:49.268Z,98338.59
2022-09-25T09:14:31.529Z,98341.28
2022-09-25T09:17:02.686Z,98331.81
2022-09-25T09:19:32.997Z,98333.44
2022-09-25T09:22:11.103Z,98348.22
2022-09-25T09:25:00.785Z,98349.63
2022-09-25T09:27:59.671Z,98351.22
2022-09-25T09:30:38.322Z,98344.56
2022-09-25T09:33:29.661Z,98352.16
2022-09-25T09:36:11.809Z,98358.16
2022-09-25T09:38:55.930Z,98363.88
2022-09-25T09:41:37.038Z,98357.63
2022-09-25T09:44:24.072Z,98355.44
2022-09-25T09:47:05.022Z,98355.28
2022-09-25T09:49:50.584Z,98355.06
2022-09-25T09:52:35.800Z,98380.47
2022-09-25T09:55:26.656Z,98359.91
2022-09-25T09:57:59.457Z,98374.81
2022-09-25T10:00:28.673Z,98382.72
2022-09-25T10:03:08.474Z,98390.16
2022-09-25T10:05:43.130Z,98396.09
2022-09-25T10:08:22.397Z,98380.56
2022-09-25T10:10:54.815Z,98392.56
2022-09-25T10:13:28.905Z,98388.19
2022-09-25T10:16:01.637Z,98395.63
2022-09-25T10:18:46.257Z,98400.28
2022-09-25T10:21:18.723Z,98391.34
2022-09-25T10:23:53.022Z,98385.63
2022-09-25T10:26:30.135Z,98386.66
2022-09-25T10:31:37.731Z,98400.97
2022-09-25T10:34:21.797Z,98405.88
2022-09-25T10:36:53.156Z,98400.13
2022-09-25T10:39:49.229Z,98413.94
2022-09-25T10:42:38.676Z,98416.38
2022-09-25T10:45:30.468Z,98425.63
2022-09-25T10:48:13.282Z,98423.47
2022-09-25T10:50:45.695Z,98412.63
2022-09-25T10:53:30.850Z,98421.94
2022-09-25T10:56:05.728Z,98423.66
2022-09-25T10:58:43.057Z,98435.25
2022-09-25T11:01:15.823Z,98433.25
2022-09-25T11:03:55.196Z,98404.44
2022-09-25T11:06:34.778Z,98424.31
2022-09-25T11:09:14.754Z,98433.88
2022-09-25T11:11:45.665Z,98422.75
2022-09-25T11:14:28.224Z,98426.03
2022-09-25T11:16:58.195Z,98440.38
2022-09-25T11:19:30.601Z,98428.72
2022-09-25T11:22:15.129Z,98415.91
2022-09-25T11:24:57.193Z,98439.34
2022-09-25T11:27:36.545Z,98436.88
2022-09-25T11:30:08.870Z,98445.47
2022-09-25T11:32:51.639Z,98453.06
2022-09-25T11:35:48.377Z,98450.31
2022-09-25T11:38:43.453Z,98454.78
2022-09-25T11:41:22.592Z,98455.38
2022-09-25T11:44:05.670Z,98452.72
2022-09-25T11:46:49.820Z,98450.91
2022-09-25T11:49:24.249Z,98467.59
2022-09-25T11:52:24.505Z,98463.81
2022-09-25T11:58:20.824Z,98475.44
2022-09-25T12:01:00.028Z,98472.78
2022-09-25T12:03:49.599Z,98469.06
2022-09-25T12:06:38.827Z,98478.41
2022-09-25T12:09:28.670Z,98487.31
2022-09-25T12:12:07.032Z,98477.00
2022-09-25T12:14:45.098Z,98482.22
2022-09-25T12:17:21.936Z,98483.19
2022-09-25T12:19:57.643Z,98487.22
2022-09-25T12:22:39.151Z,98486.13
2022-09-25T12:25:30.251Z,98491.88
2022-09-25T12:28:30.373Z,98497.72
2022-09-25T12:31:11.823Z,98493.59
2022-09-25T12:33:48.683Z,98497.84
2022-09-25T12:36:22.906Z,98502.88
2022-09-25T12:39:08.391Z,98490.97
2022-09-25T12:41:42.407Z,98500.09
2022-09-25T12:44:27.468Z,98510.50
2022-09-25T12:47:04.562Z,98508.69
2022-09-25T12:56:44.101Z,98514.72
2022-09-25T12:59:17.566Z,98515.63
2022-09-25T13:01:54.962Z,98481.78
2022-09-25T13:04:41.645Z,98512.66
2022-09-25T13:07:19.491Z,98515.72
2022-09-25T13:09:50.583Z,98516.63
2022-09-25T13:12:36.070Z,98526.78
2022-09-25T13:15:09.260Z,98523.47
2022-09-25T13:17:39.492Z,98522.69
2022-09-25T13:20:40.462Z,98520.03
2022-09-25T13:23:19.297Z,98514.03
2022-09-25T13:25:59.234Z,98510.63
2022-09-25T13:28:33.761Z,98512.28
2022-09-25T13:31:10.278Z,98511.22
2022-09-25T13:33:46.686Z,98519.25
2022-09-25T13:36:38.734Z,98518.56
2022-09-25T13:39:29.801Z,98530.59
2022-09-25T13:42:03.878Z,98531.81
2022-09-25T13:45:05.819Z,98531.06
2022-09-25T13:47:53.497Z,98533.97
2022-09-25T13:50:31.098Z,98529.03
2022-09-25T13:53:24.584Z,98526.75
2022-09-25T13:56:20.403Z,98537.91
2022-09-25T13:59:21.729Z,98538.09
2022-09-25T14:01:58.705Z,98530.75
2022-09-25T14:04:34.507Z,98548.56
2022-09-25T14:07:19.777Z,98542.47
2022-09-25T14:09:53.397Z,98547.94
2022-09-25T14:15:16.214Z,98554.78
2022-09-25T14:17:48.894Z,98564.16
2022-09-25T14:20:40.783Z,98565.69
2022-09-25T14:23:17.178Z,98566.63
2022-09-25T14:25:47.222Z,98569.19
2022-09-25T14:28:26.630Z,98565.66
2022-09-25T14:31:20.358Z,98563.84
2022-09-25T14:34:30.526Z,98568.81
2022-09-25T14:37:13.690Z,98567.22
2022-09-25T14:39:51.187Z,98555.28
2022-09-25T14:42:37.553Z,98581.50
2022-09-25T14:45:31.248Z,98584.69
2022-09-25T14:48:02.540Z,98591.56
2022-09-25T14:50:39.902Z,98589.66
2022-09-25T14:53:14.242Z,98576.94
2022-09-25T14:55:47.647Z,98586.31
2022-09-25T14:58:22.635Z,98584.53
2022-09-25T15:00:54.525Z,98586.28
2022-09-25T15:03:30.670Z,98556.78
2022-09-25T15:06:03.235Z,98597.50
2022-09-25T15:08:40.166Z,98594.28
2022-09-25T15:11:14.998Z,98604.28
2022-09-25T15:13:44.563Z,98611.13
2022-09-25T15:16:31.504Z,98611.16
2022-09-25T15:19:03.723Z,98619.78
2022-09-25T15:21:37.406Z,98619.84
2022-09-25T15:24:13.140Z,98611.47
2022-09-25T15:26:52.244Z,98619.16
2022-09-25T15:29:25.048Z,98608.19
2022-09-25T15:31:59.512Z,98618.53
2022-09-25T15:34:31.668Z,98624.63
2022-09-25T15:37:21.947Z,98626.38
2022-09-25T15:39:51.142Z,98620.50
2022-09-25T15:42:20.479Z,98615.44
2022-09-25T15:44:51.074Z,98621.50
2022-09-25T15:47:52.673Z,98630.03
2022-09-25T15:50:27.211Z,98629.31
2022-09-25T15:53:01.937Z,98631.19
2022-09-25T15:55:32.973Z,98620.09
2022-09-25T15:58:14.630Z,98624.38
2022-09-25T16:01:11.931Z,98632.97
2022-09-25T16:04:05.646Z,98633.00
2022-09-25T16:06:42.475Z,98633.88
2022-09-25T16:09:23.784Z,98629.56
2022-09-25T16:11:53.244Z,98635.63
2022-09-25T16:14:30.405Z,98636.34
2022-09-25T16:17:00.532Z,98631.19
2022-09-25T16:19:33.169Z,98637.13
2022-09-25T16:22:14.870Z,98632.78
2022-09-25T16:24:52.529Z,98627.50
2022-09-25T16:27:28.448Z,98627.59
2022-09-25T16:30:03.483Z,98621.81
2022-09-25T16:32:33.931Z,98619.28
2022-09-25T16:35:04.566Z,98627.97
2022-09-25T16:37:40.315Z,98625.47
2022-09-25T16:40:29.188Z,98629.75
2022-09-25T16:43:00.728Z,98636.03
2022-09-25T16:45:33.676Z,98603.09
2022-09-25T16:48:32.815Z,98630.06
2022-09-25T16:51:02.854Z,98641.34
2022-09-25T16:53:32.019Z,98650.03
2022-09-25T16:56:03.590Z,98650.78
2022-09-25T16:58:32.691Z,98650.72
2022-09-25T17:01:04.334Z,98643.78
2022-09-25T17:03:49.379Z,98647.16
2022-09-25T17:06:19.702Z,98629.06
2022-09-25T17:08:49.012Z,98634.22
2022-09-25T17:11:22.388Z,98641.81
2022-09-25T17:13:55.253Z,98635.00
2022-09-25T17:16:24.554Z,98635.88
2022-09-25T17:18:55.718Z,98643.72
2022-09-25T17:21:28.485Z,98644.59
2022-09-25T17:23:57.654Z,98644.59
2022-09-25T17:26:33.885Z,98652.34
2022-09-25T17:29:03.046Z,98658.41
2022-09-25T17:31:33.220Z,98659.19
2022-09-25T17:34:02.465Z,98657.44
2022-09-25T17:36:31.507Z,98654.75
2022-09-25T17:39:02.597Z,98655.63
2022-09-25T17:41:36.155Z,98627.56
2022-09-25T17:44:06.272Z,98662.53
2022-09-25T17:46:35.987Z,98655.69
2022-09-25T17:49:06.106Z,98653.22
2022-09-25T17:51:35.513Z,98658.38
2022-09-25T17:54:05.990Z,98660.19
2022-09-25T17:56:44.718Z,98657.56
2022-09-25T17:59:14.389Z,98652.56
2022-09-25T18:01:43.534Z,98662.84
2022-09-25T18:07:01.481Z,98662.06
2022-09-25T18:09:30.735Z,98660.41
2022-09-25T18:12:02.350Z,98667.28
2022-09-25T18:14:33.656Z,98660.47
2022-09-25T18:17:02.871Z,98657.03
2022-09-25T18:19:44.893Z,98669.09
2022-09-25T18:22:21.965Z,98662.13
2022-09-25T18:24:55.929Z,98662.97
2022-09-25T18:27:30.017Z,98658.53
2022-09-25T18:29:59.726Z,98661.09
2022-09-25T18:32:31.708Z,98667.03
2022-09-25T18:35:12.892Z,98661.84
2022-09-25T18:37:45.670Z,98668.75
2022-09-25T18:40:18.305Z,98655.94
2022-09-25T18:42:49.997Z,98663.47
2022-09-25T18:45:19.519Z,98656.81
2022-09-25T18:47:48.708Z,98665.41
2022-09-25T18:50:20.877Z,98660.38
2022-09-25T18:52:55.534Z,98654.31
2022-09-25T18:55:24.935Z,98660.41
2022-09-25T18:57:57.091Z,98663.06
2022-09-25T19:00:26.322Z,98666.53
2022-09-25T19:02:55.400Z,98669.16
2022-09-25T19:05:25.480Z,98677.66
2022-09-25T19:07:55.037Z,98675.94
2022-09-25T19:10:25.469Z,98679.38
2022-09-25T19:12:56.482Z,98687.88
2022-09-25T19:15:26.026Z,98681.91
2022-09-25T19:17:55.635Z,98684.50
2022-09-25T19:20:25.551Z,98687.88
2022-09-25T19:22:54.755Z,98681.03
2022-09-25T19:25:23.837Z,98679.28
2022-09-25T19:27:57.893Z,98679.28
2022-09-25T19:30:28.939Z,98681.06
2022-09-25T19:32:58.909Z,98690.47
2022-09-25T19:35:27.987Z,98690.38
2022-09-25T19:37:57.040Z,98697.09
2022-09-25T19:40:41.749Z,98694.41
2022-09-25T19:43:10.914Z,98689.94
2022-09-25T19:45:42.252Z,98693.19
2022-09-25T19:48:11.511Z,98686.19
2022-09-25T19:50:42.954Z,98693.78
2022-09-25T19:53:12.047Z,98698.00
2022-09-25T19:55:42.698Z,98696.22
2022-09-25T19:58:13.064Z,98690.28
2022-09-25T20:00:44.362Z,98696.97
2022-09-25T20:03:13.983Z,98696.94
2022-09-25T20:05:44.119Z,98693.44
2022-09-25T20:08:19.604Z,98704.53
2022-09-25T20:10:48.895Z,98696.97
2022-09-25T20:13:18.351Z,98699.25
2022-09-25T20:15:49.414Z,98667.75
2022-09-25T20:18:18.901Z,98696.63
2022-09-25T20:20:48.191Z,98692.41
2022-09-25T20:23:17.646Z,98699.31
2022-09-25T20:25:46.703Z,98708.81
2022-09-25T20:28:15.917Z,98702.78
2022-09-25T20:30:45.074Z,98698.47
2022-09-25T20:33:16.272Z,98698.47
2022-09-25T20:35:45.454Z,98692.53
2022-09-25T20:38:14.399Z,98696.78
2022-09-25T20:40:43.583Z,98709.72
2022-09-25T20:43:12.700Z,98707.13
2022-09-25T20:45:41.922Z,98701.97
2022-09-25T20:48:10.944Z,98701.94
2022-09-25T20:50:51.151Z,98708.69
2022-09-25T20:53:20.343Z,98704.44
2022-09-25T20:55:49.504Z,98707.00
2022-09-25T20:58:18.790Z,98708.78
2022-09-25T21:00:48.625Z,98705.34
2022-09-25T21:03:17.762Z,98707.13
2022-09-25T21:05:48.759Z,98702.06
2022-09-25T21:08:18.015Z,98712.44
2022-09-25T21:10:47.172Z,98706.53
2022-09-25T21:13:16.438Z,98709.22
2022-09-25T21:15:45.564Z,98702.50
2022-09-25T21:18:14.695Z,98707.66
2022-09-25T21:20:44.027Z,98704.22
2022-09-25T21:23:15.182Z,98711.94
2022-09-25T21:25:50.022Z,98711.06
2022-09-25T21:28:21.221Z,98717.13
2022-09-25T21:30:50.363Z,98714.53
2022-09-25T21:33:19.740Z,98718.88
2022-09-25T21:35:49.180Z,98716.31
2022-09-25T21:38:20.409Z,98725.78
2022-09-25T21:40:59.444Z,98705.38
2022-09-25T21:43:30.842Z,98719.91
2022-09-25T21:46:01.694Z,98716.50
2022-09-25T21:48:34.504Z,98725.97
2022-09-25T21:51:04.746Z,98733.72
2022-09-25T21:53:42.352Z,98736.31
2022-09-25T21:56:14.490Z,98735.53
2022-09-25T21:58:48.931Z,98734.72
2022-09-25T22:01:20.324Z,98738.22
2022-09-25T22:03:51.251Z,98730.50
2022-09-25T22:06:24.651Z,98743.44
2022-09-25T22:09:03.048Z,98741.72
2022-09-25T22:11:32.446Z,98747.72
2022-09-25T22:14:02.107Z,98736.69
2022-09-25T22:16:38.175Z,98726.41
2022-09-25T22:19:10.227Z,98742.59
2022-09-25T22:21:40.215Z,98746.88
2022-09-25T22:24:12.014Z,98740.03
2022-09-25T22:26:42.527Z,98748.38
2022-09-25T22:29:12.272Z,98742.63
2022-09-25T22:31:42.783Z,98747.78
2022-09-25T22:34:21.164Z,98746.06
2022-09-25T22:36:56.413Z,98746.94
2022-09-25T22:39:31.063Z,98740.06
2022-09-25T22:42:00.866Z,98749.50
2022-09-25T22:44:30.926Z,98745.25
2022-09-25T22:47:03.891Z,98747.91
2022-09-25T22:49:33.280Z,98746.25
2022-09-25T22:54:39.186Z,98746.25
2022-09-25T22:57:08.439Z,98750.53
2022-09-25T23:02:12.358Z,98743.59
2022-09-25T23:04:41.316Z,98745.25
2022-09-25T23:07:17.283Z,98746.06
2022-09-25T23:09:48.336Z,98750.38
2022-09-25T23:14:57.274Z,98754.75
2022-09-25T23:20:02.648Z,98766.91
2022-09-25T23:22:32.366Z,98763.47
2022-09-25T23:25:08.498Z,98764.38
2022-09-25T23:27:42.647Z,98772.19
2022-09-25T23:30:17.555Z,98771.44
2022-09-25T23:32:46.806Z,98767.16
2022-09-25T23:35:15.907Z,98768.06
2022-09-25T23:37:51.085Z,98778.41
2022-09-25T23:40:22.171Z,98772.34
2022-09-25T23:42:51.499Z,98769.75
2022-09-25T23:45:20.521Z,98776.53
2022-09-25T23:47:51.390Z,98752.66
2022-09-25T23:50:20.702Z,98779.00
2022-09-25T23:52:49.796Z,98773.84
2022-09-25T23:55:19.106Z,98774.69
2022-09-25T23:57:50.142Z,98779.78
